sensor_id;sensor_type;location;lat;lon;timestamp;pressure;altitude;pressure_sealevel;temperature;humidity
19594;BME280;9944;48.240;16.478;2023-03-05T00:04:04;99781.31;;;2.27;59.53
19594;BME280;9944;48.240;16.478;2023-03-05T00:08:08;99784.78;;;2.28;59.50
19594;BME280;9944;48.240;16.478;2023-03-05T00:12:11;99778.69;;;2.27;59.41
19594;BME280;9944;48.240;16.478;2023-03-05T00:16:15;99780.41;;;2.27;59.25
19594;BME280;9944;48.240;16.478;2023-03-05T00:20:18;99781.31;;;2.27;59.39
19594;BME280;9944;48.240;16.478;2023-03-05T00:24:22;99782.06;;;2.25;59.45
19594;BME280;9944;48.240;16.478;2023-03-05T00:28:25;99777.72;;;2.24;59.42
19594;BME280;9944;48.240;16.478;2023-03-05T00:32:29;99775.03;;;2.21;59.55
19594;BME280;9944;48.240;16.478;2023-03-05T00:36:32;99768.91;;;2.19;59.63
19594;BME280;9944;48.240;16.478;2023-03-05T00:40:37;99762.84;;;2.20;59.79
19594;BME280;9944;48.240;16.478;2023-03-05T00:44:41;99764.56;;;2.19;59.64
19594;BME280;9944;48.240;16.478;2023-03-05T00:48:44;99763.69;;;2.19;59.80
19594;BME280;9944;48.240;16.478;2023-03-05T00:52:47;99754.16;;;2.19;59.89
19594;BME280;9944;48.240;16.478;2023-03-05T00:56:52;99756.69;;;2.18;59.74
19594;BME280;9944;48.240;16.478;2023-03-05T01:00:56;99745.38;;;2.15;59.80
19594;BME280;9944;48.240;16.478;2023-03-05T01:05:00;99739.22;;;2.13;59.88
19594;BME280;9944;48.240;16.478;2023-03-05T01:09:03;99739.28;;;2.15;59.92
19594;BME280;9944;48.240;16.478;2023-03-05T01:13:07;99740.97;;;2.14;60.05
19594;BME280;9944;48.240;16.478;2023-03-05T01:17:11;99731.47;;;2.15;60.04
19594;BME280;9944;48.240;16.478;2023-03-05T01:21:15;99731.53;;;2.18;60.08
19594;BME280;9944;48.240;16.478;2023-03-05T01:25:18;99730.66;;;2.18;59.90
19594;BME280;9944;48.240;16.478;2023-03-05T01:29:23;99728.00;;;2.16;60.12
19594;BME280;9944;48.240;16.478;2023-03-05T01:33:26;99721.94;;;2.15;60.33
19594;BME280;9944;48.240;16.478;2023-03-05T01:37:29;99721.06;;;2.15;60.40
19594;BME280;9944;48.240;16.478;2023-03-05T01:41:33;99725.34;;;2.14;60.48
19594;BME280;9944;48.240;16.478;2023-03-05T01:45:38;99713.16;;;2.12;60.52
19594;BME280;9944;48.240;16.478;2023-03-05T01:49:42;99721.84;;;2.12;60.45
19594;BME280;9944;48.240;16.478;2023-03-05T01:53:45;99717.59;;;2.16;60.49
19594;BME280;9944;48.240;16.478;2023-03-05T01:57:51;99721.94;;;2.15;60.57
19594;BME280;9944;48.240;16.478;2023-03-05T02:01:58;99714.94;;;2.14;60.67
19594;BME280;9944;48.240;16.478;2023-03-05T02:06:01;99710.59;;;2.13;60.72
19594;BME280;9944;48.240;16.478;2023-03-05T02:10:14;99717.59;;;2.16;60.75
19594;BME280;9944;48.240;16.478;2023-03-05T02:14:17;99715.03;;;2.18;60.66
19594;BME280;9944;48.240;16.478;2023-03-05T02:18:23;99705.50;;;2.18;60.88
19594;BME280;9944;48.240;16.478;2023-03-05T02:22:27;99708.06;;;2.17;61.08
19594;BME280;9944;48.240;16.478;2023-03-05T02:26:30;99699.31;;;2.14;61.10
19594;BME280;9944;48.240;16.478;2023-03-05T02:30:33;99703.59;;;2.12;61.00
19594;BME280;9944;48.240;16.478;2023-03-05T02:34:38;99698.53;;;2.17;61.20
19594;BME280;9944;48.240;16.478;2023-03-05T02:38:44;99691.59;;;2.18;61.06
19594;BME280;9944;48.240;16.478;2023-03-05T02:42:48;99688.16;;;2.19;61.25
19594;BME280;9944;48.240;16.478;2023-03-05T02:46:51;99688.22;;;2.20;61.17
19594;BME280;9944;48.240;16.478;2023-03-05T02:50:55;99686.44;;;2.19;61.46
19594;BME280;9944;48.240;16.478;2023-03-05T02:55:01;99683.69;;;2.14;61.58
19594;BME280;9944;48.240;16.478;2023-03-05T02:59:04;99679.44;;;2.18;61.37
19594;BME280;9944;48.240;16.478;2023-03-05T03:03:08;99684.63;;;2.17;61.49
19594;BME280;9944;48.240;16.478;2023-03-05T03:07:12;99674.28;;;2.20;61.49
19594;BME280;9944;48.240;16.478;2023-03-05T03:11:16;99666.38;;;2.17;61.57
19594;BME280;9944;48.240;16.478;2023-03-05T03:15:20;99657.75;;;2.18;61.43
19594;BME280;9944;48.240;16.478;2023-03-05T03:19:23;99659.53;;;2.19;61.30
19594;BME280;9944;48.240;16.478;2023-03-05T03:23:26;99650.81;;;2.18;61.33
19594;BME280;9944;48.240;16.478;2023-03-05T03:27:31;99655.97;;;2.17;61.58
19594;BME280;9944;48.240;16.478;2023-03-05T03:31:34;99652.44;;;2.14;61.43
19594;BME280;9944;48.240;16.478;2023-03-05T03:35:37;99651.56;;;2.14;61.57
19594;BME280;9944;48.240;16.478;2023-03-05T03:39:41;99654.22;;;2.15;61.78
19594;BME280;9944;48.240;16.478;2023-03-05T03:43:45;99650.75;;;2.17;61.75
19594;BME280;9944;48.240;16.478;2023-03-05T03:47:48;99655.06;;;2.14;61.77
19594;BME280;9944;48.240;16.478;2023-03-05T03:51:53;99662.09;;;2.17;61.83
19594;BME280;9944;48.240;16.478;2023-03-05T03:55:57;99651.81;;;2.23;61.65
19594;BME280;9944;48.240;16.478;2023-03-05T04:00:03;99653.56;;;2.23;61.71
19594;BME280;9944;48.240;16.478;2023-03-05T04:04:13;99656.25;;;2.26;61.67
19594;BME280;9944;48.240;16.478;2023-03-05T04:08:16;99654.47;;;2.25;61.61
19594;BME280;9944;48.240;16.478;2023-03-05T04:12:19;99647.50;;;2.24;62.09
19594;BME280;9944;48.240;16.478;2023-03-05T04:16:24;99638.69;;;2.19;62.07
19594;BME280;9944;48.240;16.478;2023-03-05T04:20:27;99645.56;;;2.17;62.22
19594;BME280;9944;48.240;16.478;2023-03-05T04:24:30;99645.66;;;2.20;62.03
19594;BME280;9944;48.240;16.478;2023-03-05T04:28:33;99629.16;;;2.19;62.29
19594;BME280;9944;48.240;16.478;2023-03-05T04:32:38;99635.22;;;2.20;62.40
19594;BME280;9944;48.240;16.478;2023-03-05T04:36:41;99635.13;;;2.17;62.64
19594;BME280;9944;48.240;16.478;2023-03-05T04:40:44;99631.63;;;2.14;62.61
19594;BME280;9944;48.240;16.478;2023-03-05T04:44:48;99617.78;;;2.15;62.55
19594;BME280;9944;48.240;16.478;2023-03-05T04:48:53;99624.72;;;2.17;62.60
19594;BME280;9944;48.240;16.478;2023-03-05T04:52:56;99625.53;;;2.14;62.92
19594;BME280;9944;48.240;16.478;2023-03-05T04:57:01;99623.75;;;2.13;62.94
19594;BME280;9944;48.240;16.478;2023-03-05T05:01:05;99612.56;;;2.15;62.74
19594;BME280;9944;48.240;16.478;2023-03-05T05:05:12;99622.13;;;2.17;63.23
19594;BME280;9944;48.240;16.478;2023-03-05T05:09:15;99619.50;;;2.17;62.98
19594;BME280;9944;48.240;16.478;2023-03-05T05:13:18;99612.66;;;2.19;63.19
19594;BME280;9944;48.240;16.478;2023-03-05T05:17:21;99610.06;;;2.19;63.06
19594;BME280;9944;48.240;16.478;2023-03-05T05:21:26;99606.63;;;2.21;63.05
19594;BME280;9944;48.240;16.478;2023-03-05T05:25:29;99602.28;;;2.20;63.16
19594;BME280;9944;48.240;16.478;2023-03-05T05:29:32;99600.56;;;2.21;63.25
19594;BME280;9944;48.240;16.478;2023-03-05T05:33:35;99611.94;;;2.24;63.39
19594;BME280;9944;48.240;16.478;2023-03-05T05:37:40;99614.56;;;2.26;63.29
19594;BME280;9944;48.240;16.478;2023-03-05T05:41:43;99627.69;;;2.29;63.31
19594;BME280;9944;48.240;16.478;2023-03-05T05:45:46;99623.41;;;2.31;63.35
19594;BME280;9944;48.240;16.478;2023-03-05T05:49:50;99622.53;;;2.32;63.47
19594;BME280;9944;48.240;16.478;2023-03-05T05:53:55;99613.97;;;2.36;63.35
19594;BME280;9944;48.240;16.478;2023-03-05T05:57:58;99616.59;;;2.36;63.48
19594;BME280;9944;48.240;16.478;2023-03-05T06:02:01;99622.72;;;2.38;63.34
19594;BME280;9944;48.240;16.478;2023-03-05T06:06:08;99629.72;;;2.41;63.38
19594;BME280;9944;48.240;16.478;2023-03-05T06:10:13;99625.41;;;2.41;63.13
19594;BME280;9944;48.240;16.478;2023-03-05T06:14:16;99622.84;;;2.43;63.30
19594;BME280;9944;48.240;16.478;2023-03-05T06:18:19;99622.81;;;2.41;63.16
19594;BME280;9944;48.240;16.478;2023-03-05T06:22:22;99623.72;;;2.43;63.28
19594;BME280;9944;48.240;16.478;2023-03-05T06:26:26;99621.03;;;2.40;63.14
19594;BME280;9944;48.240;16.478;2023-03-05T06:30:29;99625.41;;;2.41;63.06
19594;BME280;9944;48.240;16.478;2023-03-05T06:34:33;99621.03;;;2.40;63.20
19594;BME280;9944;48.240;16.478;2023-03-05T06:38:36;99626.38;;;2.45;63.33
19594;BME280;9944;48.240;16.478;2023-03-05T06:42:41;99623.94;;;2.52;63.37
19594;BME280;9944;48.240;16.478;2023-03-05T06:46:44;99614.41;;;2.53;63.14
19594;BME280;9944;48.240;16.478;2023-03-05T06:50:47;99612.69;;;2.53;63.06
19594;BME280;9944;48.240;16.478;2023-03-05T06:54:50;99607.53;;;2.55;63.00
19594;BME280;9944;48.240;16.478;2023-03-05T06:58:57;99611.84;;;2.55;63.09
19594;BME280;9944;48.240;16.478;2023-03-05T07:03:01;99614.41;;;2.53;63.21
19594;BME280;9944;48.240;16.478;2023-03-05T07:07:04;99611.84;;;2.55;63.17
19594;BME280;9944;48.240;16.478;2023-03-05T07:11:08;99620.50;;;2.53;63.06
19594;BME280;9944;48.240;16.478;2023-03-05T07:15:13;99618.81;;;2.56;63.42
19594;BME280;9944;48.240;16.478;2023-03-05T07:19:16;99610.19;;;2.57;63.59
19594;BME280;9944;48.240;16.478;2023-03-05T07:23:19;99612.00;;;2.61;63.61
19594;BME280;9944;48.240;16.478;2023-03-05T07:27:22;99613.78;;;2.62;63.56
19594;BME280;9944;48.240;16.478;2023-03-05T07:31:27;99609.53;;;2.65;63.36
19594;BME280;9944;48.240;16.478;2023-03-05T07:35:32;99614.81;;;2.70;63.46
19594;BME280;9944;48.240;16.478;2023-03-05T07:39:36;99602.75;;;2.74;63.49
19594;BME280;9944;48.240;16.478;2023-03-05T07:43:39;99601.13;;;2.79;63.71
19594;BME280;9944;48.240;16.478;2023-03-05T07:47:44;99602.97;;;2.81;63.48
19594;BME280;9944;48.240;16.478;2023-03-05T07:51:47;99604.78;;;2.85;63.61
19594;BME280;9944;48.240;16.478;2023-03-05T07:55:50;99604.00;;;2.89;63.25
19594;BME280;9944;48.240;16.478;2023-03-05T07:59:53;99602.25;;;2.88;63.22
19594;BME280;9944;48.240;16.478;2023-03-05T08:03:57;99603.22;;;2.92;63.15
19594;BME280;9944;48.240;16.478;2023-03-05T08:08:01;99601.44;;;2.91;63.08
19594;BME280;9944;48.240;16.478;2023-03-05T08:12:04;99598.75;;;2.86;63.14
19594;BME280;9944;48.240;16.478;2023-03-05T08:16:10;99586.75;;;2.95;63.16
19594;BME280;9944;48.240;16.478;2023-03-05T08:20:15;99584.22;;;2.98;62.95
19594;BME280;9944;48.240;16.478;2023-03-05T08:24:19;99587.81;;;3.03;62.88
19594;BME280;9944;48.240;16.478;2023-03-05T08:28:24;99587.84;;;3.04;62.96
19594;BME280;9944;48.240;16.478;2023-03-05T08:32:27;99585.25;;;3.04;62.89
19594;BME280;9944;48.240;16.478;2023-03-05T08:36:31;99585.44;;;3.12;62.50
19594;BME280;9944;48.240;16.478;2023-03-05T08:40:35;99589.91;;;3.18;62.84
19594;BME280;9944;48.240;16.478;2023-03-05T08:44:38;99588.19;;;3.20;62.79
19594;BME280;9944;48.240;16.478;2023-03-05T08:48:41;99580.50;;;3.24;62.98
19594;BME280;9944;48.240;16.478;2023-03-05T08:52:46;99581.44;;;3.28;62.85
19594;BME280;9944;48.240;16.478;2023-03-05T08:56:49;99579.78;;;3.32;62.87
19594;BME280;9944;48.240;16.478;2023-03-05T09:00:52;99575.53;;;3.37;62.76
19594;BME280;9944;48.240;16.478;2023-03-05T09:04:55;99579.91;;;3.38;62.50
19594;BME280;9944;48.240;16.478;2023-03-05T09:08:59;99568.63;;;3.39;62.56
19594;BME280;9944;48.240;16.478;2023-03-05T09:13:02;99575.59;;;3.40;62.61
19594;BME280;9944;48.240;16.478;2023-03-05T09:17:07;99571.34;;;3.45;62.65
19594;BME280;9944;48.240;16.478;2023-03-05T09:21:13;99572.50;;;3.58;62.76
19594;BME280;9944;48.240;16.478;2023-03-05T09:25:18;99565.72;;;3.68;62.56
19594;BME280;9944;48.240;16.478;2023-03-05T09:29:21;99558.09;;;3.77;62.36
19594;BME280;9944;48.240;16.478;2023-03-05T09:33:24;99555.78;;;3.92;62.28
19594;BME280;9944;48.240;16.478;2023-03-05T09:37:27;99555.16;;;4.04;61.92
19594;BME280;9944;48.240;16.478;2023-03-05T09:41:41;99550.91;;;4.11;61.44
19594;BME280;9944;48.240;16.478;2023-03-05T09:46:01;99549.31;;;4.17;61.08
19594;BME280;9944;48.240;16.478;2023-03-05T09:50:12;99547.75;;;4.27;60.71
19594;BME280;9944;48.240;16.478;2023-03-05T09:54:24;99544.44;;;4.37;61.15
19594;BME280;9944;48.240;16.478;2023-03-05T09:58:34;99547.19;;;4.45;60.96
19594;BME280;9944;48.240;16.478;2023-03-05T10:02:45;99534.25;;;4.53;60.87
19594;BME280;9944;48.240;16.478;2023-03-05T10:06:53;99540.47;;;4.63;60.61
19594;BME280;9944;48.240;16.478;2023-03-05T10:10:58;99526.63;;;4.67;60.49
19594;BME280;9944;48.240;16.478;2023-03-05T10:15:11;99535.41;;;4.70;60.13
19594;BME280;9944;48.240;16.478;2023-03-05T10:19:32;99532.84;;;4.76;59.88
19594;BME280;9944;48.240;16.478;2023-03-05T10:23:59;99518.22;;;4.88;59.96
19594;BME280;9944;48.240;16.478;2023-03-05T10:28:09;99519.13;;;4.90;59.23
19594;BME280;9944;48.240;16.478;2023-03-05T10:32:29;99508.56;;;4.84;59.08
19594;BME280;9944;48.240;16.478;2023-03-05T10:36:47;99506.81;;;4.83;59.18
19594;BME280;9944;48.240;16.478;2023-03-05T10:40:59;99507.78;;;4.91;58.84
19594;BME280;9944;48.240;16.478;2023-03-05T10:45:13;99500.88;;;4.94;59.06
19594;BME280;9944;48.240;16.478;2023-03-05T10:49:20;99497.41;;;4.95;58.74
19594;BME280;9944;48.240;16.478;2023-03-05T10:53:26;99488.78;;;5.03;58.86
19594;BME280;9944;48.240;16.478;2023-03-05T10:57:30;99491.56;;;5.13;58.62
19594;BME280;9944;48.240;16.478;2023-03-05T11:01:34;99479.38;;;5.15;58.25
19594;BME280;9944;48.240;16.478;2023-03-05T11:05:45;99475.03;;;5.18;57.93
19594;BME280;9944;48.240;16.478;2023-03-05T11:10:03;99476.78;;;5.17;57.70
19594;BME280;9944;48.240;16.478;2023-03-05T11:14:22;99475.84;;;5.15;56.66
19594;BME280;9944;48.240;16.478;2023-03-05T11:18:31;99469.69;;;5.08;57.66
19594;BME280;9944;48.240;16.478;2023-03-05T11:22:37;99458.28;;;5.03;57.05
19594;BME280;9944;48.240;16.478;2023-03-05T11:26:49;99458.25;;;5.00;57.34
19594;BME280;9944;48.240;16.478;2023-03-05T11:31:00;99445.94;;;4.96;56.62
19594;BME280;9944;48.240;16.478;2023-03-05T11:35:27;99449.44;;;4.95;57.26
19594;BME280;9944;48.240;16.478;2023-03-05T11:39:33;99444.16;;;4.92;56.68
19594;BME280;9944;48.240;16.478;2023-03-05T11:43:39;99438.03;;;4.88;56.64
19594;BME280;9944;48.240;16.478;2023-03-05T11:47:47;99432.75;;;4.85;56.92
19594;BME280;9944;48.240;16.478;2023-03-05T11:51:57;99433.56;;;4.79;56.89
19594;BME280;9944;48.240;16.478;2023-03-05T11:56:10;99433.50;;;4.76;56.76
19594;BME280;9944;48.240;16.478;2023-03-05T12:00:24;99440.34;;;4.68;56.80
19594;BME280;9944;48.240;16.478;2023-03-05T12:04:36;99435.97;;;4.66;57.08
19594;BME280;9944;48.240;16.478;2023-03-05T12:08:41;99433.47;;;4.72;57.21
19594;BME280;9944;48.240;16.478;2023-03-05T12:12:52;99431.59;;;4.66;57.35
19594;BME280;9944;48.240;16.478;2023-03-05T12:17:02;99435.03;;;4.62;57.50
19594;BME280;9944;48.240;16.478;2023-03-05T12:21:12;99442.03;;;4.63;57.12
19594;BME280;9944;48.240;16.478;2023-03-05T12:25:26;99429.69;;;4.53;56.81
19594;BME280;9944;48.240;16.478;2023-03-05T12:29:38;99431.31;;;4.45;56.47
19594;BME280;9944;48.240;16.478;2023-03-05T12:33:42;99424.19;;;4.34;56.60
19594;BME280;9944;48.240;16.478;2023-03-05T12:38:17;99426.72;;;4.30;55.40
19594;BME280;9944;48.240;16.478;2023-03-05T12:42:50;99423.06;;;4.18;56.04
19594;BME280;9944;48.240;16.478;2023-03-05T12:47:17;99423.00;;;4.14;55.54
19594;BME280;9944;48.240;16.478;2023-03-05T12:51:33;99413.31;;;4.07;55.72
19594;BME280;9944;48.240;16.478;2023-03-05T12:55:37;99413.25;;;4.03;55.21
19594;BME280;9944;48.240;16.478;2023-03-05T12:59:50;99418.38;;;3.97;55.09
19594;BME280;9944;48.240;16.478;2023-03-05T13:03:59;99414.81;;;3.95;55.35
19594;BME280;9944;48.240;16.478;2023-03-05T13:08:09;99416.63;;;3.96;54.33
19594;BME280;9944;48.240;16.478;2023-03-05T13:12:16;99410.44;;;3.93;55.14
19594;BME280;9944;48.240;16.478;2023-03-05T13:16:22;99413.19;;;4.00;54.29
19594;BME280;9944;48.240;16.478;2023-03-05T13:20:34;99411.28;;;3.93;54.39
19594;BME280;9944;48.240;16.478;2023-03-05T13:24:38;99406.16;;;3.96;54.31
19594;BME280;9944;48.240;16.478;2023-03-05T13:28:42;99404.34;;;3.92;53.87
19594;BME280;9944;48.240;16.478;2023-03-05T13:32:49;99413.00;;;3.91;53.68
19594;BME280;9944;48.240;16.478;2023-03-05T13:36:58;99404.34;;;3.92;52.95
19594;BME280;9944;48.240;16.478;2023-03-05T13:41:15;99395.53;;;3.87;53.39
19594;BME280;9944;48.240;16.478;2023-03-05T13:45:23;99402.63;;;3.94;53.66
19594;BME280;9944;48.240;16.478;2023-03-05T13:49:27;99397.41;;;3.94;53.73
19594;BME280;9944;48.240;16.478;2023-03-05T13:53:32;99389.66;;;3.97;53.41
19594;BME280;9944;48.240;16.478;2023-03-05T13:57:37;99382.72;;;3.99;53.43
19594;BME280;9944;48.240;16.478;2023-03-05T14:01:42;99385.38;;;4.02;53.43
19594;BME280;9944;48.240;16.478;2023-03-05T14:05:46;99381.91;;;4.03;53.33
19594;BME280;9944;48.240;16.478;2023-03-05T14:09:52;99374.94;;;4.02;53.25
19594;BME280;9944;48.240;16.478;2023-03-05T14:14:03;99368.88;;;4.05;53.44
19594;BME280;9944;48.240;16.478;2023-03-05T14:18:15;99355.00;;;4.08;53.37
19594;BME280;9944;48.240;16.478;2023-03-05T14:22:31;99348.91;;;4.09;53.21
19594;BME280;9944;48.240;16.478;2023-03-05T14:26:36;99348.91;;;4.09;52.40
19594;BME280;9944;48.240;16.478;2023-03-05T14:30:44;99346.22;;;4.04;52.64
19594;BME280;9944;48.240;16.478;2023-03-05T14:34:50;99349.66;;;4.01;53.05
19594;BME280;9944;48.240;16.478;2023-03-05T14:38:55;99350.63;;;4.07;52.73
19594;BME280;9944;48.240;16.478;2023-03-05T14:43:01;99348.09;;;4.11;52.97
19594;BME280;9944;48.240;16.478;2023-03-05T14:47:04;99335.91;;;4.12;52.67
19594;BME280;9944;48.240;16.478;2023-03-05T14:51:09;99335.06;;;4.16;52.73
19594;BME280;9944;48.240;16.478;2023-03-05T14:55:14;99335.91;;;4.12;52.35
19594;BME280;9944;48.240;16.478;2023-03-05T14:59:19;99338.47;;;4.09;52.80
19594;BME280;9944;48.240;16.478;2023-03-05T15:03:23;99334.19;;;4.14;52.77
19594;BME280;9944;48.240;16.478;2023-03-05T15:07:29;99319.38;;;4.14;53.16
19594;BME280;9944;48.240;16.478;2023-03-05T15:11:33;99320.28;;;4.18;52.83
19594;BME280;9944;48.240;16.478;2023-03-05T15:15:38;99321.16;;;4.17;52.40
19594;BME280;9944;48.240;16.478;2023-03-05T15:19:41;99315.91;;;4.14;53.03
19594;BME280;9944;48.240;16.478;2023-03-05T15:23:44;99314.25;;;4.20;53.24
19594;BME280;9944;48.240;16.478;2023-03-05T15:27:48;99310.84;;;4.26;53.16
19594;BME280;9944;48.240;16.478;2023-03-05T15:31:53;99310.88;;;4.29;53.12
19594;BME280;9944;48.240;16.478;2023-03-05T15:35:56;99308.19;;;4.25;52.81
19594;BME280;9944;48.240;16.478;2023-03-05T15:40:00;99309.91;;;4.22;52.90
19594;BME280;9944;48.240;16.478;2023-03-05T15:44:03;99312.56;;;4.24;52.96
19594;BME280;9944;48.240;16.478;2023-03-05T15:48:08;99295.97;;;4.20;52.70
19594;BME280;9944;48.240;16.478;2023-03-05T15:52:11;99302.88;;;4.17;52.41
19594;BME280;9944;48.240;16.478;2023-03-05T15:56:15;99297.59;;;4.14;52.92
19594;BME280;9944;48.240;16.478;2023-03-05T16:00:20;99302.84;;;4.15;52.50
19594;BME280;9944;48.240;16.478;2023-03-05T16:04:28;99300.16;;;4.09;52.73
19594;BME280;9944;48.240;16.478;2023-03-05T16:08:32;99298.44;;;4.10;52.74
19594;BME280;9944;48.240;16.478;2023-03-05T16:12:37;99295.81;;;4.10;53.12
19594;BME280;9944;48.240;16.478;2023-03-05T16:16:43;99300.16;;;4.11;52.78
19594;BME280;9944;48.240;16.478;2023-03-05T16:20:48;99297.53;;;4.09;52.52
19594;BME280;9944;48.240;16.478;2023-03-05T16:24:51;99296.66;;;4.09;52.67
19594;BME280;9944;48.240;16.478;2023-03-05T16:28:54;99296.66;;;4.09;52.36
19594;BME280;9944;48.240;16.478;2023-03-05T16:32:57;99300.97;;;4.05;52.28
19594;BME280;9944;48.240;16.478;2023-03-05T16:37:02;99295.78;;;4.07;52.61
19594;BME280;9944;48.240;16.478;2023-03-05T16:41:07;99289.66;;;4.05;52.42
19594;BME280;9944;48.240;16.478;2023-03-05T16:45:10;99298.34;;;4.03;52.75
19594;BME280;9944;48.240;16.478;2023-03-05T16:49:14;99297.53;;;4.08;52.79
19594;BME280;9944;48.240;16.478;2023-03-05T16:53:19;99303.56;;;4.03;52.76
19594;BME280;9944;48.240;16.478;2023-03-05T16:57:22;99300.88;;;4.00;52.81
19594;BME280;9944;48.240;16.478;2023-03-05T17:01:26;99307.03;;;4.04;53.03
19594;BME280;9944;48.240;16.478;2023-03-05T17:05:30;99298.31;;;4.02;53.32
19594;BME280;9944;48.240;16.478;2023-03-05T17:09:38;99295.66;;;4.00;53.42
19594;BME280;9944;48.240;16.478;2023-03-05T17:13:42;99299.22;;;4.02;53.28
19594;BME280;9944;48.240;16.478;2023-03-05T17:17:49;99295.66;;;3.97;53.53
19594;BME280;9944;48.240;16.478;2023-03-05T17:21:52;99306.94;;;3.96;53.48
19594;BME280;9944;48.240;16.478;2023-03-05T17:25:56;99305.91;;;3.88;53.50
19594;BME280;9944;48.240;16.478;2023-03-05T17:29:59;99304.94;;;3.83;53.60
19594;BME280;9944;48.240;16.478;2023-03-05T17:34:03;99312.84;;;3.86;54.18
19594;BME280;9944;48.240;16.478;2023-03-05T17:38:06;99311.22;;;3.94;54.41
19594;BME280;9944;48.240;16.478;2023-03-05T17:42:12;99306.13;;;4.00;54.33
19594;BME280;9944;48.240;16.478;2023-03-05T17:46:16;99298.25;;;3.97;54.01
19594;BME280;9944;48.240;16.478;2023-03-05T17:50:20;99300.91;;;4.02;53.92
19594;BME280;9944;48.240;16.478;2023-03-05T17:54:23;99301.88;;;4.09;54.33
19594;BME280;9944;48.240;16.478;2023-03-05T17:58:31;99306.31;;;4.14;54.16
19594;BME280;9944;48.240;16.478;2023-03-05T18:02:34;99320.25;;;4.13;54.17
19594;BME280;9944;48.240;16.478;2023-03-05T18:06:37;99317.63;;;4.13;54.13
19594;BME280;9944;48.240;16.478;2023-03-05T18:10:40;99314.16;;;4.13;54.27
19594;BME280;9944;48.240;16.478;2023-03-05T18:14:44;99316.75;;;4.14;54.19
19594;BME280;9944;48.240;16.478;2023-03-05T18:18:48;99307.13;;;4.09;53.98
19594;BME280;9944;48.240;16.478;2023-03-05T18:22:51;99307.09;;;4.07;54.07
19594;BME280;9944;48.240;16.478;2023-03-05T18:26:54;99303.72;;;4.13;53.94
19594;BME280;9944;48.240;16.478;2023-03-05T18:30:59;99304.59;;;4.15;53.71
19594;BME280;9944;48.240;16.478;2023-03-05T18:35:05;99300.28;;;4.17;53.72
19594;BME280;9944;48.240;16.478;2023-03-05T18:39:10;99296.00;;;4.22;53.73
19594;BME280;9944;48.240;16.478;2023-03-05T18:43:17;99290.78;;;4.24;53.40
19594;BME280;9944;48.240;16.478;2023-03-05T18:47:22;99291.59;;;4.21;53.13
19594;BME280;9944;48.240;16.478;2023-03-05T18:51:26;99296.94;;;4.27;53.41
19594;BME280;9944;48.240;16.478;2023-03-05T18:55:30;99299.59;;;4.32;53.41
19594;BME280;9944;48.240;16.478;2023-03-05T18:59:33;99293.53;;;4.34;53.52
19594;BME280;9944;48.240;16.478;2023-03-05T19:03:38;99287.47;;;4.38;53.41
19594;BME280;9944;48.240;16.478;2023-03-05T19:07:42;99280.59;;;4.44;53.48
19594;BME280;9944;48.240;16.478;2023-03-05T19:11:46;99285.00;;;4.48;53.23
19594;BME280;9944;48.240;16.478;2023-03-05T19:15:49;99281.56;;;4.52;53.24
19594;BME280;9944;48.240;16.478;2023-03-05T19:19:54;99280.72;;;4.54;53.04
19594;BME280;9944;48.240;16.478;2023-03-05T19:23:59;99274.63;;;4.55;53.04
19594;BME280;9944;48.240;16.478;2023-03-05T19:28:02;99281.59;;;4.55;52.90
19594;BME280;9944;48.240;16.478;2023-03-05T19:32:06;99292.88;;;4.52;52.85
19594;BME280;9944;48.240;16.478;2023-03-05T19:36:12;99282.41;;;4.48;52.97
19594;BME280;9944;48.240;16.478;2023-03-05T19:40:15;99277.19;;;4.49;52.91
19594;BME280;9944;48.240;16.478;2023-03-05T19:44:19;99278.00;;;4.47;52.73
19594;BME280;9944;48.240;16.478;2023-03-05T19:48:22;99277.97;;;4.44;52.97
19594;BME280;9944;48.240;16.478;2023-03-05T19:52:27;99273.63;;;4.44;52.68
19594;BME280;9944;48.240;16.478;2023-03-05T19:56:30;99274.50;;;4.45;52.99
19594;BME280;9944;48.240;16.478;2023-03-05T20:00:33;99275.34;;;4.44;52.67
19594;BME280;9944;48.240;16.478;2023-03-05T20:04:36;99273.59;;;4.41;53.02
19594;BME280;9944;48.240;16.478;2023-03-05T20:08:41;99276.22;;;4.43;53.19
19594;BME280;9944;48.240;16.478;2023-03-05T20:12:44;99278.00;;;4.47;52.98
19594;BME280;9944;48.240;16.478;2023-03-05T20:16:48;99279.81;;;4.49;52.96
19594;BME280;9944;48.240;16.478;2023-03-05T20:20:53;99269.31;;;4.48;52.85
19594;BME280;9944;48.240;16.478;2023-03-05T20:24:59;99268.41;;;4.46;52.83
19594;BME280;9944;48.240;16.478;2023-03-05T20:29:03;99257.88;;;4.38;52.72
19594;BME280;9944;48.240;16.478;2023-03-05T20:33:06;99265.63;;;4.32;53.08
19594;BME280;9944;48.240;16.478;2023-03-05T20:37:09;99263.03;;;4.33;53.27
19594;BME280;9944;48.240;16.478;2023-03-05T20:41:15;99270.00;;;4.33;53.34
19594;BME280;9944;48.240;16.478;2023-03-05T20:45:19;99267.41;;;4.34;53.10
19594;BME280;9944;48.240;16.478;2023-03-05T20:49:22;99254.38;;;4.37;53.38
19594;BME280;9944;48.240;16.478;2023-03-05T20:53:25;99257.03;;;4.40;53.65
19594;BME280;9944;48.240;16.478;2023-03-05T20:57:29;99257.91;;;4.41;53.39
19594;BME280;9944;48.240;16.478;2023-03-05T21:01:35;99259.63;;;4.37;53.33
19594;BME280;9944;48.240;16.478;2023-03-05T21:05:38;99245.66;;;4.38;53.43
19594;BME280;9944;48.240;16.478;2023-03-05T21:09:41;99243.06;;;4.38;53.59
19594;BME280;9944;48.240;16.478;2023-03-05T21:13:46;99239.50;;;4.33;53.43
19594;BME280;9944;48.240;16.478;2023-03-05T21:17:52;99242.13;;;4.33;53.60
19594;BME280;9944;48.240;16.478;2023-03-05T21:21:55;99238.66;;;4.34;53.66
19594;BME280;9944;48.240;16.478;2023-03-05T21:25:59;99228.22;;;4.34;53.75
19594;BME280;9944;48.240;16.478;2023-03-05T21:30:05;99232.59;;;4.35;53.93
19594;BME280;9944;48.240;16.478;2023-03-05T21:34:08;99223.00;;;4.36;53.59
19594;BME280;9944;48.240;16.478;2023-03-05T21:38:11;99219.53;;;4.35;53.52
19594;BME280;9944;48.240;16.478;2023-03-05T21:42:15;99227.38;;;4.35;53.81
19594;BME280;9944;48.240;16.478;2023-03-05T21:46:19;99225.59;;;4.34;53.62
19594;BME280;9944;48.240;16.478;2023-03-05T21:50:23;99225.56;;;4.31;53.91
19594;BME280;9944;48.240;16.478;2023-03-05T21:54:27;99215.09;;;4.31;53.99
19594;BME280;9944;48.240;16.478;2023-03-05T21:58:31;99211.59;;;4.29;54.23